Time;durP1;ratioP1;P1;durP2;ratioP2;P2;SDS_P1;SDS_P2;PMS_P1;PMS_P2;Temp;Humidity;BMP_temperature;BMP_pressure;BME280_temperature;BME280_humidity;BME280_pressure;Samples;Min_cycle;Max_cycle;Signal;HPM_P1;HPM_P2
2022/01/22 00:01:01;;;;;;;26.50;3.10;;;6.10;99.90;;;;;;5062264;28;20082;-59
2022/01/22 00:03:26;;;;;;;33.85;3.75;;;6.00;99.90;;;;;;5062280;28;20075;-58
2022/01/22 00:05:52;;;;;;;26.88;3.13;;;6.00;99.90;;;;;;5061791;28;20111;-59
2022/01/22 00:08:18;;;;;;;25.23;3.08;;;;;;;;;;5062998;28;20037;-59
2022/01/22 00:10:44;;;;;;;28.10;3.38;;;6.00;99.90;;;;;;5062364;28;20051;-59
2022/01/22 00:15:42;;;;;;;20.52;2.70;;;6.20;99.90;;;;;;5060495;28;20043;-58
2022/01/22 00:18:08;;;;;;;23.10;2.50;;;;;;;;;;5061529;28;20493;-58
2022/01/22 00:20:36;;;;;;;26.67;3.60;;;;;;;;;;5061802;28;20867;-57
2022/01/22 00:23:03;;;;;;;24.35;2.70;;;6.00;99.90;;;;;;5061142;28;20036;-50
2022/01/22 00:25:29;;;;;;;18.48;2.80;;;6.00;99.90;;;;;;5059452;28;20043;-50
2022/01/22 00:27:56;;;;;;;24.88;4.13;;;6.10;99.90;;;;;;5060783;28;20468;-52
2022/01/22 00:30:24;;;;;;;15.02;2.45;;;6.00;99.90;;;;;;5061191;28;20098;-50
2022/01/22 00:32:51;;;;;;;18.27;2.15;;;6.00;99.90;;;;;;5061400;28;20076;-52
2022/01/22 00:35:18;;;;;;;22.17;3.65;;;6.10;99.90;;;;;;5060631;28;20560;-48
2022/01/22 00:37:47;;;;;;;16.73;2.10;;;6.00;99.90;;;;;;5060616;28;20040;-51
2022/01/22 00:40:14;;;;;;;13.25;1.90;;;6.00;99.90;;;;;;5060051;28;20048;-50
2022/01/22 00:42:41;;;;;;;15.02;2.17;;;6.00;99.90;;;;;;5061000;28;20036;-50
2022/01/22 00:45:08;;;;;;;21.95;3.63;;;;;;;;;;5060420;28;20040;-51
2022/01/22 00:47:34;;;;;;;21.13;2.65;;;;;;;;;;5059716;28;20075;-51
2022/01/22 00:50:00;;;;;;;18.95;2.30;;;;;;;;;;5061344;28;20966;-50
2022/01/22 00:52:26;;;;;;;21.88;2.60;;;6.20;99.90;;;;;;5060910;28;20036;-48
2022/01/22 00:54:52;;;;;;;25.38;2.50;;;6.00;99.90;;;;;;5060497;28;20040;-52
2022/01/22 00:57:17;;;;;;;23.42;3.50;;;6.10;99.90;;;;;;5059907;28;20067;-51
2022/01/22 00:59:43;;;;;;;20.27;3.75;;;6.30;99.90;;;;;;5060993;28;20040;-48
2022/01/22 01:02:09;;;;;;;32.92;3.33;;;;;;;;;;5060892;28;20114;-47
2022/01/22 01:04:36;;;;;;;23.45;2.30;;;6.10;99.90;;;;;;5060013;28;20051;-48
2022/01/22 01:07:04;;;;;;;20.55;3.05;;;6.10;99.90;;;;;;5061639;28;20040;-49
2022/01/22 01:09:30;;;;;;;20.15;2.35;;;;;;;;;;5060351;28;20052;-51
2022/01/22 01:12:01;;;;;;;22.27;2.88;;;6.10;99.90;;;;;;5060750;28;20500;-51
2022/01/22 01:14:34;;;;;;;16.92;1.92;;;6.10;99.90;;;;;;5061434;28;20136;-47
2022/01/22 01:33:38;;;;;;;15.57;2.03;;;6.00;99.90;;;;;;5059629;28;20049;-52
2022/01/22 01:36:05;;;;;;;10.73;2.03;;;6.10;99.90;;;;;;5060419;28;20530;-52
2022/01/22 01:38:38;;;;;;;22.55;2.38;;;6.10;99.90;;;;;;5061865;28;20033;-49
2022/01/22 01:41:13;;;;;;;18.25;2.25;;;;;;;;;;5063584;28;20036;-50
2022/01/22 01:43:41;;;;;;;13.18;2.10;;;6.10;99.90;;;;;;5062412;28;20045;-51
2022/01/22 01:46:06;;;;;;;10.13;1.55;;;6.00;99.90;;;;;;5063435;28;20063;-51
2022/01/22 01:48:37;;;;;;;21.52;3.22;;;6.10;99.90;;;;;;5063509;28;20032;-48
2022/01/22 01:51:06;;;;;;;13.60;1.48;;;6.20;99.90;;;;;;5064036;28;20067;-52
2022/01/22 01:53:51;;;;;;;15.20;1.70;;;6.20;99.90;;;;;;5062457;28;20131;-50
2022/01/22 01:59:03;;;;;;;10.75;1.63;;;6.00;99.90;;;;;;5062207;28;20041;-49
2022/01/22 02:01:29;;;;;;;7.65;1.55;;;6.00;99.90;;;;;;5061478;28;20033;-49
2022/01/22 02:03:54;;;;;;;12.25;1.88;;;6.10;99.90;;;;;;5063159;28;20082;-48
2022/01/22 02:06:20;;;;;;;18.83;2.65;;;6.20;99.90;;;;;;5063355;28;20045;-52
2022/01/22 02:08:46;;;;;;;8.32;1.70;;;6.20;99.90;;;;;;5063402;28;20123;-53
2022/01/22 02:11:14;;;;;;;12.73;1.92;;;;;;;;;;5063686;28;20143;-51
2022/01/22 02:24:50;;;;;;;14.02;2.53;;;5.90;99.90;;;;;;5062883;28;19925;-48
2022/01/22 02:27:17;;;;;;;20.33;2.63;;;6.00;99.90;;;;;;5062669;28;20115;-52
2022/01/22 02:29:43;;;;;;;17.10;2.15;;;5.90;99.90;;;;;;5063832;28;20186;-50
2022/01/22 02:34:55;;;;;;;15.43;2.22;;;6.00;99.90;;;;;;5063258;28;20049;-49
2022/01/22 02:37:23;;;;;;;11.02;1.88;;;5.90;99.90;;;;;;5062249;28;20068;-50
2022/01/22 02:40:05;;;;;;;9.95;1.48;;;;;;;;;;5063754;28;20052;-50
2022/01/22 02:42:34;;;;;;;14.53;1.40;;;5.90;99.90;;;;;;5063546;28;20052;-47
2022/01/22 02:45:10;;;;;;;12.43;1.40;;;6.00;99.90;;;;;;5064896;28;20076;-50
2022/01/22 02:47:36;;;;;;;12.38;1.77;;;6.00;99.90;;;;;;5063854;28;20400;-48
2022/01/22 02:50:04;;;;;;;19.10;4.07;;;5.80;99.90;;;;;;5063223;28;20078;-47
2022/01/22 02:52:30;;;;;;;14.48;1.80;;;6.10;99.90;;;;;;5063885;28;20032;-51
2022/01/22 02:54:56;;;;;;;12.18;1.58;;;5.90;99.90;;;;;;5064189;28;20098;-49
2022/01/22 02:57:23;;;;;;;12.05;2.10;;;6.10;99.90;;;;;;5064045;28;20403;-52
2022/01/22 02:59:49;;;;;;;11.00;1.77;;;5.90;99.90;;;;;;5064532;28;20037;-51
2022/01/22 03:02:15;;;;;;;12.98;1.95;;;6.00;99.90;;;;;;5063166;28;20044;-52
2022/01/22 03:04:41;;;;;;;13.95;1.67;;;5.90;99.90;;;;;;5063178;28;20497;-50
2022/01/22 03:07:07;;;;;;;8.18;1.40;;;6.00;99.90;;;;;;5062991;28;20044;-50
2022/01/22 03:09:40;;;;;;;11.48;1.80;;;;;;;;;;5061257;28;20061;-52
2022/01/22 03:27:52;;;;;;;8.43;1.55;;;5.80;99.90;;;;;;5061613;28;20756;-51
2022/01/22 03:30:18;;;;;;;7.88;1.48;;;;;;;;;;5061493;28;20119;-49
2022/01/22 03:32:48;;;;;;;5.45;1.55;;;6.00;99.90;;;;;;5062717;28;20037;-49
2022/01/22 03:37:48;;;;;;;8.73;1.40;;;5.80;99.90;;;;;;5061637;28;20101;-49
2022/01/22 03:40:14;;;;;;;11.20;1.23;;;5.80;99.90;;;;;;5062085;28;20083;-49
2022/01/22 03:42:41;;;;;;;9.77;1.83;;;5.80;99.90;;;;;;5062201;28;20037;-52
2022/01/22 03:45:09;;;;;;;12.88;2.88;;;5.90;99.90;;;;;;5043772;28;20044;-51
2022/01/22 03:47:35;;;;;;;13.02;1.63;;;5.90;99.90;;;;;;5060966;28;20576;-49
2022/01/22 03:50:02;;;;;;;7.03;1.58;;;5.80;99.90;;;;;;5062592;28;20049;-48
2022/01/22 03:52:29;;;;;;;7.40;1.40;;;;;;;;;;5062065;28;20393;-52
2022/01/22 03:54:54;;;;;;;16.38;2.38;;;5.90;99.90;;;;;;5062298;28;20497;-50
2022/01/22 03:57:22;;;;;;;8.77;1.27;;;5.80;99.90;;;;;;5062225;28;20043;-51
2022/01/22 03:59:50;;;;;;;10.63;1.13;;;5.80;99.90;;;;;;5061463;28;20106;-52
2022/01/22 04:04:48;;;;;;;8.23;1.23;;;5.90;99.90;;;;;;5062734;28;20126;-52
2022/01/22 04:10:03;;;;;;;15.13;1.25;;;5.80;99.90;;;;;;5062179;28;19924;-51
2022/01/22 04:12:42;;;;;;;10.23;1.60;;;;;;;;;;5061976;28;20413;-50
2022/01/22 04:15:12;;;;;;;12.80;1.17;;;5.80;99.90;;;;;;5061732;28;20049;-49
2022/01/22 04:28:43;;;;;;;10.57;1.88;;;5.80;99.90;;;;;;4963390;28;20055;-48
2022/01/22 04:31:09;;;;;;;13.55;2.05;;;;;;;;;;4963918;28;20043;-53
2022/01/22 04:33:54;;;;;;;9.55;1.30;;;6.00;99.90;;;;;;4964498;28;20063;-50
2022/01/22 04:36:19;;;;;;;14.60;1.90;;;6.00;99.90;;;;;;4967437;28;20208;-49
2022/01/22 04:38:46;;;;;;;12.68;2.05;;;;;;;;;;4974532;28;20842;-49
2022/01/22 04:41:11;;;;;;;10.68;1.48;;;5.90;99.90;;;;;;4972531;28;20056;-52
2022/01/22 04:43:40;;;;;;;9.82;1.63;;;;;;;;;;4970552;28;20050;-52
2022/01/22 04:46:15;;;;;;;16.40;2.67;;;;;;;;;;4972628;28;20149;-52
2022/01/22 04:56:54;;;;;;;14.05;1.50;;;;;;;;;;4964171;28;20057;-50
2022/01/22 04:59:20;;;;;;;10.38;1.70;;;5.90;99.90;;;;;;4978958;28;21445;-47
2022/01/22 05:01:47;;;;;;;10.90;1.50;;;5.80;99.90;;;;;;4985016;28;20046;-48
2022/01/22 05:04:12;;;;;;;11.57;1.90;;;5.90;99.90;;;;;;4989276;28;20069;-52
2022/01/22 05:06:40;;;;;;;11.00;1.77;;;5.90;99.90;;;;;;5049358;28;20756;-51
2022/01/22 05:09:06;;;;;;;8.10;1.40;;;;;;;;;;5059766;28;22173;-48
2022/01/22 05:11:32;;;;;;;9.68;1.20;;;5.80;99.90;;;;;;5059323;28;20045;-49
2022/01/22 05:13:59;;;;;;;12.90;2.13;;;5.80;99.90;;;;;;5060550;28;20105;-50
2022/01/22 05:16:25;;;;;;;11.40;2.55;;;5.80;99.90;;;;;;5060556;28;20087;-50
2022/01/22 05:19:02;;;;;;;12.52;1.50;;;5.90;99.90;;;;;;5060920;28;20478;-50
2022/01/22 05:21:32;;;;;;;9.43;1.20;;;5.80;99.90;;;;;;5061255;28;20052;-47
2022/01/22 05:24:03;;;;;;;13.02;1.80;;;;;;;;;;5061781;28;20106;-50
2022/01/22 05:37:05;;;;;;;8.30;1.05;;;5.80;99.90;;;;;;5061420;28;20044;-50
2022/01/22 05:39:33;;;;;;;11.52;1.45;;;5.80;99.90;;;;;;5060891;28;20747;-52
2022/01/22 05:42:01;;;;;;;10.35;1.48;;;5.70;99.90;;;;;;5062338;28;20036;-52
2022/01/22 05:44:27;;;;;;;9.23;1.30;;;5.80;99.90;;;;;;5061854;28;20400;-52
2022/01/22 05:47:01;;;;;;;12.35;1.77;;;5.70;99.90;;;;;;5061238;28;20120;-49
2022/01/22 05:49:29;;;;;;;6.15;1.25;;;5.80;99.90;;;;;;5061311;28;20116;-47
2022/01/22 05:51:57;;;;;;;9.43;1.70;;;5.90;99.90;;;;;;5060953;28;20096;-49
2022/01/22 05:59:53;;;;;;;8.50;1.80;;;5.80;99.90;;;;;;5060644;28;20094;-50
2022/01/22 06:02:19;;;;;;;7.18;1.63;;;5.70;99.90;;;;;;5059891;28;20033;-51
2022/01/22 06:04:45;;;;;;;9.32;1.70;;;5.90;99.90;;;;;;5060197;28;20051;-52
2022/01/22 06:07:13;;;;;;;11.00;1.58;;;5.80;99.90;;;;;;5059587;28;20044;-50
2022/01/22 06:09:51;;;;;;;6.82;1.40;;;5.90;99.90;;;;;;5060123;28;20049;-49
2022/01/22 06:12:36;;;;;;;9.82;1.65;;;5.80;99.90;;;;;;5059188;28;20048;-52
2022/01/22 06:15:02;;;;;;;9.35;1.85;;;;;;;;;;5059417;28;20123;-49
2022/01/22 06:17:28;;;;;;;10.77;2.10;;;5.80;99.90;;;;;;5060774;28;20468;-50
2022/01/22 06:19:53;;;;;;;13.13;2.15;;;5.90;99.90;;;;;;5060171;28;20124;-52
2022/01/22 06:22:19;;;;;;;11.75;1.63;;;;;;;;;;5059135;28;20060;-51
2022/01/22 06:24:47;;;;;;;10.50;1.60;;;5.90;99.90;;;;;;5062933;28;20048;-50
2022/01/22 06:27:13;;;;;;;13.35;1.90;;;6.00;99.90;;;;;;5064187;28;20040;-51
2022/01/22 06:29:39;;;;;;;11.40;2.05;;;5.90;99.90;;;;;;5063264;28;20106;-51
2022/01/22 06:32:07;;;;;;;12.18;2.00;;;6.00;99.90;;;;;;5063088;28;20052;-51
2022/01/22 06:34:33;;;;;;;8.18;1.65;;;;;;;;;;5062992;28;20040;-51
2022/01/22 06:36:58;;;;;;;9.80;2.55;;;5.80;99.90;;;;;;5063962;28;20040;-52
2022/01/22 06:39:24;;;;;;;11.82;1.80;;;5.80;99.90;;;;;;5062762;28;20055;-47
2022/01/22 06:41:50;;;;;;;5.65;1.50;;;;;;;;;;5063435;28;20037;-51
2022/01/22 06:44:18;;;;;;;10.50;2.22;;;5.70;99.90;;;;;;5063879;28;20068;-53
2022/01/22 06:46:47;;;;;;;6.35;1.65;;;5.70;99.90;;;;;;5063755;28;20052;-53
2022/01/22 06:49:13;;;;;;;9.85;2.40;;;;;;;;;;5063287;28;20048;-50
2022/01/22 06:51:40;;;;;;;8.90;1.90;;;5.80;99.90;;;;;;5063361;28;20067;-52
2022/01/22 06:54:10;;;;;;;11.65;2.10;;;5.70;99.90;;;;;;5063918;28;20052;-53
2022/01/22 06:56:37;;;;;;;7.90;2.03;;;5.70;99.90;;;;;;5063407;28;20049;-51
2022/01/22 06:59:05;;;;;;;9.18;2.03;;;5.80;99.90;;;;;;5063527;28;20041;-52
2022/01/22 07:01:33;;;;;;;9.75;2.72;;;5.60;99.90;;;;;;5062702;28;20439;-52
2022/01/22 07:03:59;;;;;;;8.25;1.80;;;;;;;;;;5061999;28;20519;-48
2022/01/22 07:06:25;;;;;;;7.90;1.73;;;5.80;99.90;;;;;;5063228;28;20119;-48
2022/01/22 07:08:52;;;;;;;6.57;1.70;;;5.70;99.90;;;;;;5062116;28;20123;-49
2022/01/22 07:11:19;;;;;;;7.43;2.05;;;;;;;;;;5063983;28;20135;-48
2022/01/22 07:13:45;;;;;;;9.02;1.77;;;5.70;99.90;;;;;;5063455;28;20052;-50
2022/01/22 07:16:11;;;;;;;6.80;1.83;;;5.70;99.90;;;;;;5062408;28;20054;-49
2022/01/22 07:18:37;;;;;;;7.60;1.50;;;5.70;99.90;;;;;;5062140;28;20032;-48
2022/01/22 07:21:13;;;;;;;5.88;1.70;;;5.60;99.90;;;;;;5063551;28;20125;-46
2022/01/22 07:26:15;;;;;;;8.32;1.65;;;5.60;99.90;;;;;;5062653;28;20048;-48
2022/01/22 07:28:41;;;;;;;10.18;2.75;;;5.60;99.90;;;;;;5062054;28;20036;-51
2022/01/22 07:31:08;;;;;;;8.40;2.20;;;5.70;99.90;;;;;;5061927;28;20477;-47
2022/01/22 07:33:34;;;;;;;8.65;1.85;;;5.50;99.90;;;;;;5063993;28;20462;-51
2022/01/22 07:36:01;;;;;;;7.32;2.30;;;5.60;99.90;;;;;;5061784;28;20151;-50
2022/01/22 07:38:28;;;;;;;9.85;3.30;;;5.60;99.90;;;;;;5044249;28;20136;-50
2022/01/22 07:40:54;;;;;;;7.53;2.17;;;5.50;99.90;;;;;;5061538;28;20036;-49
2022/01/22 07:43:19;;;;;;;7.07;2.05;;;5.40;99.90;;;;;;5062645;28;20039;-51
2022/01/22 07:45:45;;;;;;;9.30;2.03;;;5.40;99.90;;;;;;5062321;28;20921;-51
2022/01/22 07:48:11;;;;;;;8.60;1.35;;;;;;;;;;5061473;28;20036;-48
2022/01/22 07:50:37;;;;;;;4.00;1.10;;;5.50;99.90;;;;;;5061987;28;20539;-47
2022/01/22 07:53:03;;;;;;;9.05;1.50;;;;;;;;;;5063700;28;20056;-50
2022/01/22 07:55:30;;;;;;;10.77;2.05;;;5.40;99.90;;;;;;5061651;28;20064;-50
2022/01/22 07:57:56;;;;;;;3.88;1.10;;;5.40;99.90;;;;;;5061886;28;20725;-52
2022/01/22 08:00:22;;;;;;;6.30;1.55;;;;;;;;;;5062560;28;20520;-48
2022/01/22 08:02:48;;;;;;;9.73;1.27;;;5.60;99.90;;;;;;5061899;28;20497;-50
2022/01/22 08:05:15;;;;;;;5.28;1.20;;;5.50;99.90;;;;;;5060733;28;20146;-51
2022/01/22 08:10:25;;;;;;;11.93;1.48;;;;;;;;;;5060356;28;20573;-46
2022/01/22 08:12:51;;;;;;;3.78;0.95;;;;;;;;;;5062293;28;20059;-51
2022/01/22 08:15:18;;;;;;;9.93;1.20;;;5.50;99.90;;;;;;5061739;28;20036;-50
2022/01/22 08:17:44;;;;;;;6.07;1.13;;;5.60;99.90;;;;;;5061430;28;20048;-49
2022/01/22 08:20:14;;;;;;;12.32;1.90;;;5.50;99.90;;;;;;5062898;28;20063;-51
2022/01/22 08:22:41;;;;;;;11.70;2.38;;;5.50;99.90;;;;;;5060187;28;20040;-51
2022/01/22 08:25:09;;;;;;;11.13;1.83;;;5.50;99.90;;;;;;5061566;28;20052;-51
2022/01/22 08:27:42;;;;;;;16.02;1.60;;;;;;;;;;5060569;28;20036;-48
2022/01/22 08:30:10;;;;;;;14.00;1.67;;;5.50;99.90;;;;;;5059073;28;20067;-52
2022/01/22 08:37:50;;;;;;;6.70;1.42;;;5.50;99.90;;;;;;5059410;28;20059;-45
2022/01/22 08:40:16;;;;;;;12.07;2.15;;;5.60;99.90;;;;;;5062226;28;20048;-50
2022/01/22 08:42:41;;;;;;;16.15;3.15;;;5.70;99.90;;;;;;5060867;28;20530;-49
2022/01/22 08:45:08;;;;;;;9.38;1.70;;;5.70;99.90;;;;;;5061026;28;20060;-52
2022/01/22 08:47:34;;;;;;;11.93;1.80;;;;;;;;;;5059639;28;20074;-51
2022/01/22 08:50:00;;;;;;;13.52;2.83;;;5.70;99.90;;;;;;5060738;28;20060;-52
2022/01/22 08:52:31;;;;;;;14.88;2.05;;;6.20;99.90;;;;;;5055907;28;20068;-48
2022/01/22 08:54:57;;;;;;;14.88;2.47;;;5.60;99.90;;;;;;5059243;28;20033;-52
2022/01/22 08:57:23;;;;;;;14.43;3.20;;;5.70;99.90;;;;;;5059727;28;20036;-50
2022/01/22 08:59:48;;;;;;;21.13;2.60;;;5.70;99.90;;;;;;5060705;28;20079;-49
2022/01/22 09:02:15;;;;;;;12.45;2.05;;;5.70;99.90;;;;;;5059871;28;20050;-51
2022/01/22 09:04:41;;;;;;;15.20;3.17;;;5.60;99.90;;;;;;5059524;28;20115;-47
2022/01/22 09:07:09;;;;;;;17.52;2.50;;;5.70;99.90;;;;;;5059386;28;20040;-51
2022/01/22 09:09:36;;;;;;;16.17;2.53;;;5.70;99.90;;;;;;5059559;28;20082;-50
2022/01/22 09:12:05;;;;;;;11.45;2.40;;;5.70;99.90;;;;;;5060751;28;20048;-51
2022/01/22 09:14:31;;;;;;;13.00;3.17;;;5.90;99.90;;;;;;5060433;28;20521;-49
2022/01/22 09:16:59;;;;;;;15.02;2.38;;;5.70;99.90;;;;;;5060827;28;20036;-50
2022/01/22 09:19:32;;;;;;;18.58;2.67;;;5.70;99.90;;;;;;5060808;28;20048;-50
2022/01/22 09:21:59;;;;;;;15.57;3.28;;;5.80;99.90;;;;;;5060543;28;21403;-46
2022/01/22 09:24:25;;;;;;;11.95;2.40;;;;;;;;;;5059976;28;20440;-48
2022/01/22 09:26:51;;;;;;;12.75;3.17;;;5.80;99.90;;;;;;5060423;28;20044;-50
2022/01/22 09:29:20;;;;;;;14.50;2.42;;;5.80;99.90;;;;;;5060237;28;20037;-50
2022/01/22 09:31:46;;;;;;;13.10;2.25;;;6.00;99.90;;;;;;5061070;28;20175;-52
2022/01/22 09:34:13;;;;;;;13.07;1.95;;;5.90;99.90;;;;;;5060161;28;20536;-46
2022/01/22 09:36:41;;;;;;;14.88;2.25;;;5.90;99.90;;;;;;5061452;28;20040;-47
2022/01/22 09:39:07;;;;;;;11.30;2.65;;;5.90;99.90;;;;;;5060642;28;20040;-50
2022/01/22 09:41:33;;;;;;;12.07;2.20;;;5.90;99.90;;;;;;5059888;28;20122;-50
2022/01/22 09:43:58;;;;;;;18.20;2.75;;;5.80;99.90;;;;;;5059154;28;20041;-49
2022/01/22 09:46:26;;;;;;;10.80;2.08;;;6.00;99.90;;;;;;5059536;28;20040;-47
2022/01/22 09:48:53;;;;;;;13.52;2.60;;;6.00;99.90;;;;;;5060093;28;20408;-47
2022/01/22 09:51:19;;;;;;;10.85;2.72;;;6.00;99.90;;;;;;5060754;28;20033;-50
2022/01/22 09:53:46;;;;;;;17.20;3.45;;;6.00;99.90;;;;;;5060651;28;20029;-50
2022/01/22 09:56:12;;;;;;;21.38;3.10;;;6.10;99.90;;;;;;5060879;28;20068;-48
2022/01/22 09:58:38;;;;;;;20.70;2.75;;;6.10;99.90;;;;;;5061410;28;20066;-48
2022/01/22 10:01:26;;;;;;;12.50;2.63;;;6.20;99.90;;;;;;5065321;28;20032;-48
2022/01/22 10:03:59;;;;;;;14.20;2.65;;;6.10;99.90;;;;;;5064689;28;20036;-51
2022/01/22 10:06:28;;;;;;;11.75;2.63;;;6.20;99.90;;;;;;5064030;28;20040;-50
2022/01/22 10:09:13;;;;;;;15.55;3.28;;;6.10;99.90;;;;;;5065532;28;20089;-50
2022/01/22 10:11:40;;;;;;;12.55;2.40;;;6.30;99.90;;;;;;5062759;28;20052;-48
2022/01/22 10:14:07;;;;;;;13.70;2.55;;;6.20;99.90;;;;;;5063937;28;20794;-50
2022/01/22 10:16:34;;;;;;;13.98;2.70;;;6.20;99.90;;;;;;5064106;28;20033;-50
2022/01/22 10:19:20;;;;;;;15.82;2.28;;;6.20;99.90;;;;;;5064735;28;20041;-49
2022/01/22 10:21:57;;;;;;;15.88;2.35;;;6.30;99.90;;;;;;5063177;28;20121;-47
2022/01/22 10:24:46;;;;;;;17.05;2.35;;;6.30;99.90;;;;;;5063991;28;20047;-48
2022/01/22 10:27:35;;;;;;;15.70;2.17;;;6.30;99.90;;;;;;5063203;28;20119;-49
2022/01/22 10:30:16;;;;;;;13.30;2.80;;;6.30;99.90;;;;;;5061950;28;20048;-51
2022/01/22 10:33:06;;;;;;;13.20;2.47;;;6.30;99.90;;;;;;5063161;28;20033;-50
2022/01/22 10:35:32;;;;;;;12.80;2.97;;;6.10;99.90;;;;;;5063811;28;20505;-48
2022/01/22 10:38:00;;;;;;;18.00;3.90;;;6.40;99.90;;;;;;5063381;28;20102;-51
2022/01/22 10:40:30;;;;;;;12.65;2.78;;;6.20;99.90;;;;;;5064180;28;20050;-50
2022/01/22 10:43:21;;;;;;;16.25;2.72;;;6.30;99.90;;;;;;5063383;28;20493;-50
2022/01/22 10:48:55;;;;;;;21.83;4.18;;;6.40;99.90;;;;;;5063072;28;20044;-52
2022/01/22 10:51:22;;;;;;;18.10;4.53;;;6.40;99.90;;;;;;5060776;28;20464;-50
2022/01/22 10:53:57;;;;;;;13.75;2.95;;;6.40;99.90;;;;;;5063502;28;20037;-53
2022/01/22 10:56:27;;;;;;;15.15;3.45;;;7.20;99.90;;;;;;5061351;28;20156;-52
2022/01/22 10:59:06;;;;;;;14.20;2.72;;;6.40;99.90;;;;;;5064271;28;20033;-49
2022/01/22 11:01:55;;;;;;;78.85;22.83;;;6.40;99.90;;;;;;5061266;28;20505;-49
2022/01/22 11:04:40;;;;;;;272.58;82.35;;;6.30;99.90;;;;;;5062115;28;20632;-52
2022/01/22 11:07:08;;;;;;;210.35;49.60;;;6.30;99.90;;;;;;5063474;28;20525;-51
2022/01/22 11:09:35;;;;;;;79.60;22.60;;;6.40;99.90;;;;;;5061669;28;20040;-51
2022/01/22 11:12:02;;;;;;;15.88;7.03;;;6.40;99.90;;;;;;5062715;28;20044;-51
2022/01/22 11:14:32;;;;;;;29.10;9.35;;;6.50;99.90;;;;;;5062626;28;20413;-49
2022/01/22 11:16:59;;;;;;;29.02;14.40;;;6.50;99.90;;;;;;5062146;28;20112;-51
2022/01/22 11:19:33;;;;;;;36.33;18.08;;;6.40;99.90;;;;;;5063196;28;20634;-49
2022/01/22 11:22:14;;;;;;;26.30;19.75;;;6.50;99.90;;;;;;5062611;28;20041;-51
2022/01/22 11:24:49;;;;;;;29.90;21.92;;;6.60;99.90;;;;;;5061818;28;20045;-52
2022/01/22 11:27:19;;;;;;;73.35;49.28;;;6.60;99.90;;;;;;5062861;28;20530;-52
2022/01/22 11:30:07;;;;;;;44.83;29.33;;;6.40;99.90;;;;;;5061829;28;20045;-52
2022/01/22 11:32:48;;;;;;;50.22;27.52;;;6.50;99.90;;;;;;5062842;28;20485;-53
2022/01/22 11:35:28;;;;;;;68.03;45.10;;;6.60;99.90;;;;;;5062510;28;20044;-50
2022/01/22 11:38:04;;;;;;;22.95;10.43;;;6.60;99.90;;;;;;5061806;28;20041;-48
2022/01/22 11:40:32;;;;;;;29.58;14.02;;;6.60;99.90;;;;;;5062976;28;20496;-48
2022/01/22 11:43:11;;;;;;;24.30;6.72;;;6.50;99.90;;;;;;5063294;28;20115;-46
2022/01/22 11:45:46;;;;;;;33.97;19.50;;;6.60;99.90;;;;;;5063479;28;20047;-48
2022/01/22 11:48:18;;;;;;;27.13;9.48;;;6.40;99.90;;;;;;5062918;28;20040;-52
2022/01/22 11:50:47;;;;;;;41.38;20.38;;;6.60;99.90;;;;;;5062716;28;20531;-49
2022/01/22 11:53:34;;;;;;;22.92;5.13;;;6.50;99.90;;;;;;5062823;28;20048;-48
2022/01/22 11:56:12;;;;;;;35.40;17.00;;;6.30;99.90;;;;;;5060349;28;20519;-49
2022/01/22 11:58:56;;;;;;;17.88;5.68;;;6.40;99.90;;;;;;5060837;28;21385;-48
2022/01/22 12:01:50;;;;;;;12.82;3.03;;;6.40;99.90;;;;;;5061695;28;20047;-51
2022/01/22 12:04:21;;;;;;;20.88;8.23;;;6.50;99.90;;;;;;5059727;28;20143;-51
2022/01/22 12:07:01;;;;;;;24.77;6.32;;;6.50;99.90;;;;;;5059741;28;20094;-51
2022/01/22 12:09:31;;;;;;;25.10;8.10;;;6.50;99.90;;;;;;5060415;28;20040;-49
2022/01/22 12:15:02;;;;;;;20.48;6.32;;;6.50;99.90;;;;;;5062118;28;20057;-50
2022/01/22 12:17:46;;;;;;;20.38;3.75;;;6.60;99.90;;;;;;5060803;28;20040;-51
2022/01/22 12:20:45;;;;;;;19.52;4.57;;;6.60;99.90;;;;;;5060625;28;20067;-51
2022/01/22 12:23:13;;;;;;;16.00;3.38;;;6.60;99.90;;;;;;5061475;28;20048;-51
2022/01/22 12:25:38;;;;;;;10.80;2.90;;;6.60;99.90;;;;;;5060582;28;20113;-50
2022/01/22 12:28:09;;;;;;;16.58;2.97;;;6.50;99.90;;;;;;5061174;28;20728;-52
2022/01/22 12:30:55;;;;;;;13.13;3.03;;;6.60;99.90;;;;;;5059629;28;20178;-52
2022/01/22 12:33:43;;;;;;;11.48;2.42;;;6.70;99.90;;;;;;5059657;28;20123;-52
2022/01/22 12:36:18;;;;;;;8.73;2.00;;;6.70;99.90;;;;;;5060217;28;20085;-48
2022/01/22 12:38:56;;;;;;;13.10;2.30;;;7.60;99.90;;;;;;5060723;28;20047;-52
2022/01/22 12:44:15;;;;;;;9.20;2.58;;;6.70;99.90;;;;;;5060872;28;20056;-49
2022/01/22 12:46:44;;;;;;;10.95;1.65;;;6.60;99.90;;;;;;5061073;28;20028;-50
2022/01/22 12:49:14;;;;;;;8.02;1.77;;;6.70;99.90;;;;;;5061263;28;20052;-51
2022/01/22 12:51:40;;;;;;;13.98;1.88;;;6.60;99.90;;;;;;5060855;28;20401;-49
2022/01/22 12:54:06;;;;;;;10.90;2.20;;;6.50;99.90;;;;;;5062594;28;20109;-52
2022/01/22 12:59:06;;;;;;;10.15;2.42;;;6.50;99.90;;;;;;5061720;28;20044;-52
2022/01/22 13:01:34;;;;;;;10.65;1.90;;;6.50;99.90;;;;;;5061430;28;20039;-49
2022/01/22 13:04:04;;;;;;;12.15;1.88;;;6.40;99.90;;;;;;5060718;28;20036;-52
2022/01/22 13:06:44;;;;;;;9.60;2.17;;;6.50;99.90;;;;;;5059199;28;20044;-51
2022/01/22 13:09:11;;;;;;;10.70;2.03;;;6.50;99.90;;;;;;5060537;28;20043;-50
2022/01/22 13:11:45;;;;;;;11.30;1.88;;;6.50;99.90;;;;;;5057923;28;20053;-52
2022/01/22 13:14:17;;;;;;;9.38;2.08;;;6.60;99.90;;;;;;5058161;28;20060;-51
2022/01/22 13:16:53;;;;;;;14.47;1.93;;;6.50;99.90;;;;;;5060448;28;20468;-53
2022/01/22 13:19:20;;;;;;;10.52;2.38;;;6.60;99.90;;;;;;5060683;28;20074;-51
2022/01/22 13:22:00;;;;;;;9.23;2.13;;;6.70;99.90;;;;;;5060935;28;20074;-52
2022/01/22 13:24:29;;;;;;;10.77;2.00;;;6.60;99.90;;;;;;5060900;28;20351;-52
2022/01/22 13:27:03;;;;;;;10.05;1.75;;;6.60;99.90;;;;;;5059723;28;20377;-53
2022/01/22 13:29:35;;;;;;;33.92;4.13;;;6.60;99.90;;;;;;5059183;28;20041;-52
2022/01/22 13:32:33;;;;;;;9.27;2.08;;;6.60;99.90;;;;;;5060310;28;20063;-46
2022/01/22 13:48:36;;;;;;;10.02;1.80;;;6.50;99.90;;;;;;5063622;28;20045;-53
2022/01/22 13:51:03;;;;;;;9.57;2.28;;;6.10;99.90;;;;;;5061632;28;20032;-52
2022/01/22 13:53:30;;;;;;;14.35;2.22;;;6.40;99.90;;;;;;5057897;28;20106;-50
2022/01/22 13:56:02;;;;;;;6.93;1.70;;;6.50;99.90;;;;;;5063670;28;20033;-51
2022/01/22 13:58:30;;;;;;;;;;;6.30;99.90;;;;;;5064588;28;20049;-51
2022/01/22 14:01:03;;;;;;;10.57;2.42;;;6.40;99.90;;;;;;5063793;28;20631;-52
2022/01/22 14:03:36;;;;;;;12.07;2.05;;;6.40;99.90;;;;;;5063319;28;20044;-51
2022/01/22 14:06:05;;;;;;;6.97;1.20;;;6.50;99.90;;;;;;5062231;28;20044;-50
2022/01/22 14:08:34;;;;;;;8.00;1.58;;;6.40;99.90;;;;;;5064359;28;20817;-50
2022/01/22 14:11:11;;;;;;;10.52;1.30;;;6.40;99.90;;;;;;5064124;28;20084;-49
2022/01/22 14:13:39;;;;;;;6.05;1.20;;;6.50;99.90;;;;;;5063139;28;20429;-47
2022/01/22 14:16:19;;;;;;;3.88;0.80;;;6.20;99.90;;;;;;5062918;28;20036;-52
2022/01/22 14:18:46;;;;;;;5.53;1.10;;;6.40;99.90;;;;;;5062933;28;20036;-49
2022/01/22 14:21:20;;;;;;;7.78;1.20;;;6.40;99.90;;;;;;5061926;28;20045;-50
2022/01/22 14:23:48;;;;;;;7.40;1.20;;;6.30;99.90;;;;;;5063254;28;20029;-52
2022/01/22 14:26:27;;;;;;;9.18;1.92;;;6.40;99.90;;;;;;5063225;28;20132;-49
2022/01/22 14:28:56;;;;;;;8.63;1.42;;;6.40;99.90;;;;;;5062212;28;20364;-49
2022/01/22 14:31:51;;;;;;;8.90;1.35;;;6.30;99.90;;;;;;5063278;28;20045;-51
2022/01/22 14:34:45;;;;;;;8.50;1.20;;;6.40;99.90;;;;;;5060743;28;20053;-50
2022/01/22 14:37:30;;;;;;;9.43;1.27;;;6.20;99.90;;;;;;5061967;28;20044;-52
2022/01/22 14:45:25;;;;;;;11.63;1.65;;;6.30;99.90;;;;;;5062932;28;20063;-49
2022/01/22 14:47:53;;;;;;;8.20;1.35;;;6.20;99.90;;;;;;5062760;28;20041;-52
2022/01/22 14:50:20;;;;;;;10.80;1.42;;;;;;;;;;5063130;28;20040;-50
2022/01/22 14:52:47;;;;;;;8.25;1.52;;;6.20;99.90;;;;;;5062926;28;20071;-51
2022/01/22 14:55:13;;;;;;;12.32;1.20;;;6.30;99.90;;;;;;5063343;28;20048;-53
2022/01/22 14:57:41;;;;;;;8.32;2.08;;;6.30;99.90;;;;;;5062352;28;20036;-52
2022/01/22 15:00:09;;;;;;;10.73;1.90;;;6.30;99.90;;;;;;5062243;28;20060;-52
2022/01/22 15:02:39;;;;;;;8.80;1.80;;;6.20;99.90;;;;;;5063010;28;20054;-52
2022/01/22 15:05:08;;;;;;;10.82;2.25;;;6.20;99.90;;;;;;5063103;28;20040;-52
2022/01/22 15:07:34;;;;;;;10.20;2.38;;;6.20;99.90;;;;;;5062030;28;20048;-50
2022/01/22 15:10:00;;;;;;;7.25;1.60;;;6.10;99.90;;;;;;5063327;28;20060;-54
2022/01/22 15:12:29;;;;;;;9.32;2.28;;;6.00;99.90;;;;;;5062967;28;20106;-51
2022/01/22 15:14:55;;;;;;;14.38;3.65;;;6.00;99.90;;;;;;5061798;28;20044;-53
2022/01/22 15:19:50;;;;;;;9.25;2.22;;;6.00;99.90;;;;;;5062537;28;20492;-51
2022/01/22 15:22:17;;;;;;;11.88;2.15;;;6.00;99.90;;;;;;5063962;28;20085;-52
2022/01/22 15:24:49;;;;;;;10.77;3.05;;;6.00;99.90;;;;;;5064253;28;20049;-50
2022/01/22 15:27:16;;;;;;;;;;;5.80;99.90;;;;;;5064138;28;20501;-52
2022/01/22 15:29:54;;;;;;;15.48;2.20;;;5.80;99.90;;;;;;5062456;28;19924;-49
2022/01/22 15:35:04;;;;;;;8.77;2.38;;;5.90;99.90;;;;;;5061668;28;20137;-51